createdAt,value
2022-12-28T00:05:00.177Z,5.01
2022-12-28T00:10:06.208Z,5.02
2022-12-28T00:15:12.313Z,5.14
2022-12-28T00:20:20.995Z,5.27
2022-12-28T00:25:26.441Z,5.19
2022-12-28T00:30:32.066Z,5.25
2022-12-28T00:35:37.584Z,5.33
2022-12-28T00:40:43.813Z,5.28
2022-12-28T00:45:50.446Z,5.26
2022-12-28T00:51:04.678Z,5.31
2022-12-28T00:56:18.951Z,5.28
2022-12-28T01:01:28.235Z,5.27
2022-12-28T01:06:35.773Z,5.12
2022-12-28T01:11:43.168Z,5.02
2022-12-28T01:16:48.901Z,5.04
2022-12-28T01:21:54.485Z,5.05
2022-12-28T01:27:00.028Z,5.14
2022-12-28T01:32:06.107Z,5.09
2022-12-28T01:37:11.522Z,5.09
2022-12-28T01:42:21.787Z,5.09
2022-12-28T01:47:30.212Z,5.04
2022-12-28T01:52:41.609Z,4.97
2022-12-28T01:58:08.161Z,4.97
2022-12-28T02:03:16.882Z,4.90
2022-12-28T02:08:43.725Z,4.86
2022-12-28T02:13:52.320Z,4.75
2022-12-28T02:18:58.197Z,4.75
2022-12-28T02:24:21.765Z,4.80
2022-12-28T02:29:45.022Z,4.95
2022-12-28T02:34:59.649Z,4.92
2022-12-28T02:40:08.174Z,4.97
2022-12-28T02:45:54.678Z,5.05
2022-12-28T02:51:03.193Z,5.06
2022-12-28T02:56:29.867Z,5.09
2022-12-28T03:01:57.149Z,5.16
2022-12-28T03:07:29.705Z,5.20
2022-12-28T03:12:41.436Z,5.20
2022-12-28T03:18:05.793Z,5.33
2022-12-28T03:23:32.341Z,5.31
2022-12-28T03:28:58.581Z,5.34
2022-12-28T03:34:08.401Z,5.35
2022-12-28T03:39:21.835Z,5.36
2022-12-28T03:44:31.614Z,5.40
2022-12-28T03:49:38.186Z,5.40
2022-12-28T03:54:44.695Z,5.42
2022-12-28T03:59:51.596Z,5.48
2022-12-28T04:04:57.452Z,5.49
2022-12-28T04:10:03.614Z,5.47
2022-12-28T04:15:09.906Z,5.52
2022-12-28T04:20:16.831Z,5.52
2022-12-28T04:25:22.727Z,5.48
2022-12-28T04:30:28.437Z,5.41
2022-12-28T04:35:34.392Z,5.47
2022-12-28T04:40:40.144Z,5.47
2022-12-28T04:45:45.606Z,5.48
2022-12-28T04:50:51.048Z,5.50
2022-12-28T04:55:58.140Z,5.54
2022-12-28T05:01:09.308Z,5.55
2022-12-28T05:06:19.627Z,5.56
2022-12-28T05:11:27.988Z,5.53
2022-12-28T05:16:33.600Z,5.49
2022-12-28T05:21:39.265Z,5.55
2022-12-28T05:26:44.729Z,5.52
2022-12-28T05:31:50.210Z,5.50
2022-12-28T05:36:55.701Z,5.53
2022-12-28T05:42:02.800Z,5.47
2022-12-28T05:47:08.346Z,5.38
2022-12-28T05:52:13.746Z,5.48
2022-12-28T05:57:19.188Z,5.52
2022-12-28T06:02:26.467Z,5.54
2022-12-28T06:07:31.976Z,5.53
2022-12-28T06:12:37.518Z,5.48
2022-12-28T06:17:43.075Z,5.55
2022-12-28T06:22:48.510Z,5.55
2022-12-28T06:27:54.490Z,5.57
2022-12-28T06:33:00.277Z,5.52
2022-12-28T06:38:05.876Z,5.57
2022-12-28T06:43:11.332Z,5.46
2022-12-28T06:48:16.790Z,5.56
2022-12-28T06:53:22.311Z,5.58
2022-12-28T06:58:29.431Z,5.58
2022-12-28T07:03:35.104Z,5.57
2022-12-28T07:08:40.917Z,5.51
2022-12-28T07:13:46.547Z,5.53
2022-12-28T07:18:52.707Z,5.65
2022-12-28T07:23:58.622Z,5.60
2022-12-28T07:29:06.088Z,5.56
2022-12-28T07:34:12.077Z,5.49
2022-12-28T07:39:17.512Z,5.53
2022-12-28T07:44:25.571Z,5.70
2022-12-28T07:49:30.465Z,5.73
2022-12-28T07:54:35.996Z,5.75
2022-12-28T07:59:41.616Z,5.75
2022-12-28T08:04:52.029Z,5.82
2022-12-28T08:09:54.226Z,5.86
2022-12-28T08:15:01.365Z,6.64
2022-12-28T08:20:07.597Z,6.40
2022-12-28T08:25:13.573Z,6.23
2022-12-28T08:30:19.159Z,6.72
2022-12-28T08:35:24.779Z,6.50
2022-12-28T08:40:30.882Z,6.36
2022-12-28T08:45:36.426Z,6.34
2022-12-28T08:50:42.031Z,6.25
2022-12-28T08:55:47.536Z,6.14
2022-12-28T09:00:53.055Z,6.21
2022-12-28T09:05:58.752Z,6.20
2022-12-28T09:11:06.855Z,6.35
2022-12-28T09:16:15.541Z,6.41
2022-12-28T09:21:23.806Z,6.46
2022-12-28T09:26:35.350Z,6.42
2022-12-28T09:31:41.578Z,6.41
2022-12-28T09:36:47.241Z,6.51
2022-12-28T09:42:05.282Z,6.58
2022-12-28T09:47:30.433Z,6.71
2022-12-28T09:52:40.545Z,6.66
2022-12-28T09:57:49.968Z,6.79
2022-12-28T10:03:04.568Z,6.74
2022-12-28T10:08:13.948Z,6.83
2022-12-28T10:13:54.141Z,6.86
2022-12-28T10:18:39.669Z,6.87
2022-12-28T10:24:12.476Z,6.78
2022-12-28T10:28:58.390Z,6.84
2022-12-28T10:34:05.620Z,6.78
2022-12-28T10:39:20.037Z,6.74
2022-12-28T10:44:43.920Z,6.83
2022-12-28T10:49:43.917Z,6.88
2022-12-28T10:54:54.577Z,6.97
2022-12-28T11:00:16.411Z,6.93
2022-12-28T11:05:25.614Z,7.06
2022-12-28T11:10:32.603Z,6.97
2022-12-28T11:15:38.138Z,7.01
2022-12-28T11:20:52.425Z,7.01
2022-12-28T11:25:58.557Z,7.12
2022-12-28T11:31:05.582Z,7.28
2022-12-28T11:36:16.928Z,7.24
2022-12-28T11:41:33.699Z,7.27
2022-12-28T11:46:39.493Z,7.25
2022-12-28T11:51:45.090Z,7.20
2022-12-28T11:56:56.234Z,7.24
2022-12-28T12:02:03.961Z,7.14
2022-12-28T12:07:18.098Z,7.22
2022-12-28T12:12:32.601Z,7.30
2022-12-28T12:17:50.279Z,7.38
2022-12-28T12:23:01.868Z,7.53
2022-12-28T12:28:18.925Z,7.54
2022-12-28T12:33:27.524Z,7.59
2022-12-28T12:38:47.675Z,7.73
2022-12-28T12:44:08.214Z,7.81
2022-12-28T12:49:22.501Z,7.85
2022-12-28T12:54:39.563Z,7.85
2022-12-28T13:00:06.274Z,7.82
2022-12-28T13:05:14.705Z,7.80
2022-12-28T13:10:34.997Z,7.84
2022-12-28T13:15:43.448Z,7.83
2022-12-28T13:21:00.300Z,7.93
2022-12-28T13:26:05.966Z,7.87
2022-12-28T13:31:20.263Z,7.93
2022-12-28T13:36:25.916Z,8.03
2022-12-28T13:41:35.310Z,8.10
2022-12-28T13:46:44.175Z,8.18
2022-12-28T13:51:53.523Z,8.18
2022-12-28T13:57:20.480Z,8.31
2022-12-28T14:02:06.322Z,8.40
2022-12-28T14:07:17.915Z,8.51
2022-12-28T14:12:24.220Z,8.61
2022-12-28T14:17:30.996Z,8.58
2022-12-28T14:22:39.223Z,8.61
2022-12-28T14:27:59.800Z,8.63
2022-12-28T14:33:13.391Z,8.70
2022-12-28T14:38:18.498Z,8.71
2022-12-28T14:43:27.119Z,8.71
2022-12-28T14:48:35.538Z,8.75
2022-12-28T14:53:41.069Z,8.76
2022-12-28T14:58:55.276Z,8.79
2022-12-28T15:04:04.533Z,8.88
2022-12-28T15:09:11.276Z,8.90
2022-12-28T15:14:16.724Z,8.94
2022-12-28T15:19:22.984Z,9.01
2022-12-28T15:24:33.808Z,9.03
2022-12-28T15:30:04.437Z,9.12
2022-12-28T15:34:44.381Z,9.12
2022-12-28T15:39:50.271Z,9.16
2022-12-28T15:44:55.773Z,9.23
2022-12-28T15:50:02.968Z,9.30
2022-12-28T15:55:09.144Z,9.28
2022-12-28T16:00:18.378Z,9.31
2022-12-28T16:05:24.088Z,9.31
2022-12-28T16:10:29.681Z,9.36
2022-12-28T16:15:35.750Z,9.36
2022-12-28T16:20:41.131Z,9.40
2022-12-28T16:25:52.460Z,9.40
2022-12-28T16:30:59.033Z,9.35
2022-12-28T16:36:05.984Z,9.39
2022-12-28T16:41:12.612Z,9.37
2022-12-28T16:46:18.397Z,9.41
2022-12-28T16:51:24.034Z,9.41
2022-12-28T16:56:29.421Z,9.50
2022-12-28T17:01:35.621Z,9.53
2022-12-28T17:06:43.075Z,9.57
2022-12-28T17:11:51.895Z,9.69
2022-12-28T17:16:57.489Z,9.78
2022-12-28T17:22:04.242Z,9.73
2022-12-28T17:27:15.549Z,9.68
2022-12-28T17:32:17.934Z,9.68
2022-12-28T17:37:23.483Z,9.62
2022-12-28T17:42:28.939Z,9.69
2022-12-28T17:47:35.068Z,9.67
2022-12-28T17:52:41.990Z,9.68
2022-12-28T17:57:47.369Z,9.75
2022-12-28T18:02:53.812Z,9.75
2022-12-28T18:07:59.529Z,9.79
2022-12-28T18:13:05.153Z,9.80
2022-12-28T18:18:10.764Z,9.69
2022-12-28T18:23:16.385Z,9.67
2022-12-28T18:28:23.554Z,9.76
2022-12-28T18:33:29.084Z,9.75
2022-12-28T18:38:35.722Z,9.68
2022-12-28T18:43:41.855Z,9.67
2022-12-28T18:48:47.517Z,9.67
2022-12-28T18:53:52.889Z,9.71
2022-12-28T18:58:59.080Z,9.70
2022-12-28T19:04:05.911Z,9.67
2022-12-28T19:09:12.435Z,10.07
2022-12-28T19:14:18.166Z,10.43
2022-12-28T19:19:23.643Z,9.98
2022-12-28T19:24:29.177Z,9.83
2022-12-28T19:29:34.557Z,9.63
2022-12-28T19:34:40.007Z,9.62
2022-12-28T19:39:45.677Z,9.64
2022-12-28T19:44:51.198Z,9.67
2022-12-28T19:49:56.879Z,9.60
2022-12-28T19:55:02.328Z,9.60
2022-12-28T20:00:09.740Z,9.53
2022-12-28T20:05:17.091Z,9.53
2022-12-28T20:10:22.721Z,9.51
2022-12-28T20:15:28.451Z,9.53
2022-12-28T20:21:08.927Z,9.28
2022-12-28T20:25:41.162Z,9.32
2022-12-28T20:30:49.675Z,9.29
2022-12-28T20:36:04.240Z,9.35
2022-12-28T20:41:14.048Z,9.18
2022-12-28T20:46:19.637Z,9.21
2022-12-28T20:51:25.126Z,9.20
2022-12-28T20:56:30.658Z,9.05
2022-12-28T21:01:38.269Z,9.10
2022-12-28T21:06:44.850Z,9.05
2022-12-28T21:11:52.251Z,9.13
2022-12-28T21:16:57.865Z,9.10
2022-12-28T21:22:03.263Z,9.12
2022-12-28T21:27:08.798Z,9.07
2022-12-28T21:32:14.506Z,9.10
2022-12-28T21:37:35.132Z,9.04
2022-12-28T21:42:41.613Z,9.03
2022-12-28T21:47:47.314Z,9.04
2022-12-28T21:52:52.704Z,9.09
2022-12-28T21:58:01.238Z,9.04
2022-12-28T22:03:25.065Z,9.10
2022-12-28T22:08:50.293Z,9.13
2022-12-28T22:13:55.743Z,9.09
2022-12-28T22:19:03.540Z,9.28
2022-12-28T22:24:09.512Z,9.16
2022-12-28T22:29:15.602Z,9.12
2022-12-28T22:34:21.129Z,8.99
2022-12-28T22:39:26.512Z,8.96
2022-12-28T22:44:32.028Z,8.93
2022-12-28T22:49:37.491Z,8.98
2022-12-28T22:54:42.934Z,8.98
2022-12-28T22:59:48.531Z,9.02
2022-12-28T23:04:54.041Z,9.09
2022-12-28T23:09:59.796Z,9.07
2022-12-28T23:15:20.127Z,9.09
2022-12-28T23:20:43.726Z,9.11
2022-12-28T23:26:07.245Z,9.11
2022-12-28T23:31:12.647Z,9.01
2022-12-28T23:36:18.152Z,8.96
2022-12-28T23:41:41.543Z,8.93
2022-12-28T23:46:49.583Z,8.93
2022-12-28T23:51:55.622Z,8.82
2022-12-28T23:57:01.179Z,8.85
